« Back
NWS Peachtree City, Ga » Text Product » AHN Terminal Aerodrome Forecast


Printer-friendly Version
Current Version              Previous Versions:   1  2  3  4  5  6  7  8  9  

Terminal Aerodrome Forecast

934
FTAK31 PAJN 211700
TAFAHN
TAF
PAHN 211723Z 2118/2218 32012KT P6SM FEW120
      TEMPO 2118/2121 32012G20KT
     FM212100 31010KT P6SM SKC
     FM212300 VRB05KT P6SM SKC
     FM220500 31009KT P6SM SKC
     FM221400 31010KT P6SM SCT120
      AMD LTD TO CLD VIS AND WIND=

USA.gov is the U.S. government's official web portal to all federal, state and local government web resources and services.